Time;durP1;ratioP1;P1;durP2;ratioP2;P2;SDS_P1;SDS_P2;PMS_P1;PMS_P2;Temp;Humidity;BMP_temperature;BMP_pressure;BME280_temperature;BME280_humidity;BME280_pressure;Samples;Min_cycle;Max_cycle;Signal;HPM_P1;HPM_P2
2022/07/08 00:02:04;;;;;;;;;;;;;;;22.67;52.03;101730.31;5076279;28;2742;-62
2022/07/08 00:04:30;;;;;;;;;;;;;;;22.65;51.99;101727.31;5073687;28;2701;-62
2022/07/08 00:06:57;;;;;;;;;;;;;;;22.66;52.22;101736.75;5076032;28;3205;-62
2022/07/08 00:09:23;;;;;;;;;;;;;;;22.64;52.07;101737.41;5075106;28;2705;-62
2022/07/08 00:11:49;;;;;;;;;;;;;;;22.64;52.21;101737.41;5075467;28;2689;-62
2022/07/08 00:14:16;;;;;;;;;;;;;;;22.63;52.07;101735.16;5070620;28;2685;-61
2022/07/08 00:16:43;;;;;;;;;;;;;;;22.64;52.00;101730.88;5077931;28;2761;-62
2022/07/08 00:19:11;;;;;;;;;;;;;;;22.63;51.87;101723.59;5074692;28;2579;-62
2022/07/08 00:21:37;;;;;;;;;;;;;;;22.63;51.90;101729.38;5074779;28;2851;-61
2022/07/08 00:24:04;;;;;;;;;;;;;;;22.61;52.01;101727.16;5074203;28;2639;-62
2022/07/08 00:26:31;;;;;;;;;;;;;;;22.61;52.27;101737.91;5076843;28;2666;-62
2022/07/08 00:28:57;;;;;;;;;;;;;;;22.61;52.17;101732.16;5076983;28;2797;-62
2022/07/08 00:31:23;;;;;;;;;;;;;;;22.61;51.89;101732.16;5078414;28;2559;-61
2022/07/08 00:33:50;;;;;;;;;;;;;;;22.59;52.31;101736.44;5071683;28;2744;-62
2022/07/08 00:36:16;;;;;;;;;;;;;;;22.58;52.21;101737.81;5071663;28;2666;-61
2022/07/08 00:38:43;;;;;;;;;;;;;;;22.58;52.15;101734.94;5075740;28;2676;-62
2022/07/08 00:41:10;;;;;;;;;;;;;;;22.59;52.13;101739.31;5077852;28;2375;-62
2022/07/08 00:43:37;;;;;;;;;;;;;;;22.58;51.80;101746.47;5074488;28;3123;-62
2022/07/08 00:46:04;;;;;;;;;;;;;;;22.58;51.81;101751.50;5075939;28;2657;-62
2022/07/08 00:48:30;;;;;;;;;;;;;;;22.58;52.02;101751.50;5075294;28;2640;-62
2022/07/08 00:50:58;;;;;;;;;;;;;;;22.56;51.76;101746.41;5075013;28;2946;-62
2022/07/08 00:53:25;;;;;;;;;;;;;;;22.55;51.92;101753.53;5072554;28;2610;-62
2022/07/08 00:55:51;;;;;;;;;;;;;;;22.53;51.61;101756.31;5067279;28;2590;-61
2022/07/08 00:58:18;;;;;;;;;;;;;;;22.56;51.79;101755.06;5047861;28;2489;-62
2022/07/08 01:00:44;;;;;;;;;;;;;;;22.57;51.91;101768.09;5062024;28;2658;-61
2022/07/08 01:03:11;;;;;;;;;;;;;;;22.56;52.06;101765.84;5064698;28;2603;-62
2022/07/08 01:05:37;;;;;;;;;;;;;;;22.55;51.73;101762.22;5064937;28;2578;-62
2022/07/08 01:08:04;;;;;;;;;;;;;;;22.56;51.97;101778.16;5068390;28;2820;-62
2022/07/08 01:10:30;;;;;;;;;;;;;;;22.54;51.75;101769.38;5074276;28;2612;-62
2022/07/08 01:12:56;;;;;;;;;;;;;;;22.54;52.08;101775.16;5059148;28;2615;-62
2022/07/08 01:15:23;;;;;;;;;;;;;;;22.54;52.05;101775.16;5071702;28;2633;-61
2022/07/08 01:17:49;;;;;;;;;;;;;;;22.53;51.86;101779.41;5074984;28;2615;-62
2022/07/08 01:20:16;;;;;;;;;;;;;;;22.52;52.06;101777.94;5067355;28;2547;-61
2022/07/08 01:22:42;;;;;;;;;;;;;;;22.54;51.67;101774.38;5070920;28;2856;-62
2022/07/08 01:25:08;;;;;;;;;;;;;;;22.52;52.02;101783.72;5071015;28;2872;-62
2022/07/08 01:27:35;;;;;;;;;;;;;;;22.50;51.87;101774.94;5071840;28;2654;-62
2022/07/08 01:30:02;;;;;;;;;;;;;;;22.50;52.09;101772.06;5070718;28;2845;-62
2022/07/08 01:32:32;;;;;;;;;;;;;;;22.51;52.14;101776.41;5070414;28;2483;-62
2022/07/08 01:34:58;;;;;;;;;;;;;;;22.50;52.09;101780.72;5071408;28;2944;-61
2022/07/08 01:37:24;;;;;;;;;;;;;;;22.50;52.07;101780.72;5074407;28;2804;-62
2022/07/08 01:39:51;;;;;;;;;;;;;;;22.50;51.85;101780.72;5074940;28;2607;-62
2022/07/08 01:42:17;;;;;;;;;;;;;;;22.50;52.15;101780.72;5074946;28;2706;-62
2022/07/08 01:44:43;;;;;;;;;;;;;;;22.50;51.95;101785.75;5075338;28;2681;-62
2022/07/08 01:47:10;;;;;;;;;;;;;;;22.50;51.82;101797.28;5069732;28;2636;-62
2022/07/08 01:49:36;;;;;;;;;;;;;;;22.49;51.96;101795.78;5075897;28;2749;-62
2022/07/08 01:52:04;;;;;;;;;;;;;;;22.48;51.94;101795.03;5078635;28;3092;-61
2022/07/08 01:54:31;;;;;;;;;;;;;;;22.48;51.90;101789.25;5073636;28;2731;-61
2022/07/08 01:57:16;;;;;;;;;;;;;;;22.48;52.00;101795.03;5074309;28;2852;-61
2022/07/08 01:59:42;;;;;;;;;;;;;;;22.48;51.96;101794.28;5074979;28;2710;-62
2022/07/08 02:02:09;;;;;;;;;;;;;;;22.48;51.99;101792.16;5071765;28;2634;-61
2022/07/08 02:04:35;;;;;;;;;;;;;;;22.46;51.75;101794.94;5068324;28;2743;-62
2022/07/08 02:07:02;;;;;;;;;;;;;;;22.46;51.97;101792.03;5072469;28;2478;-62
2022/07/08 02:09:28;;;;;;;;;;;;;;;22.47;52.28;101798.56;5070991;28;2673;-62
2022/07/08 02:14:39;;;;;;;;;;;;;;;22.46;51.89;101792.03;5071978;28;2863;-62
2022/07/08 02:17:06;;;;;;;;;;;;;;;22.45;52.06;101793.44;5069228;28;3103;-61
2022/07/08 02:19:33;;;;;;;;;;;;;;;22.47;52.05;101807.22;5070029;28;2904;-61
2022/07/08 02:21:59;;;;;;;;;;;;;;;22.45;52.18;101799.22;5069533;28;2835;-61
2022/07/08 02:24:26;;;;;;;;;;;;;;;22.46;51.97;101802.84;5073005;28;2880;-61
2022/07/08 02:26:52;;;;;;;;;;;;;;;22.45;52.07;101799.22;5072619;28;3029;-62
2022/07/08 02:29:18;;;;;;;;;;;;;;;22.44;52.00;101806.34;5075430;28;2609;-62
2022/07/08 02:31:45;;;;;;;;;;;;;;;22.45;52.08;101807.88;5053726;28;2747;-62
2022/07/08 02:34:11;;;;;;;;;;;;;;;22.45;51.90;101813.66;5070771;28;2890;-62
2022/07/08 02:36:38;;;;;;;;;;;;;;;22.45;51.97;101819.41;5068008;28;2753;-62
2022/07/08 02:39:05;;;;;;;;;;;;;;;22.44;52.18;101820.78;5070808;28;2606;-62
2022/07/08 02:41:31;;;;;;;;;;;;;;;22.45;52.18;101822.31;5070627;28;2583;-62
2022/07/08 02:43:57;;;;;;;;;;;;;;;22.45;52.15;101825.19;5072335;28;3017;-62
2022/07/08 02:46:24;;;;;;;;;;;;;;;22.45;52.02;101830.97;5066756;28;2664;-62
2022/07/08 02:48:50;;;;;;;;;;;;;;;22.44;52.22;101834.47;5068158;28;2694;-61
2022/07/08 02:51:17;;;;;;;;;;;;;;;22.45;52.06;101833.84;5072476;28;2738;-61
2022/07/08 02:53:43;;;;;;;;;;;;;;;22.43;51.92;101836.63;5073509;28;2626;-61
2022/07/08 02:56:09;;;;;;;;;;;;;;;22.44;52.16;101841.00;5070126;28;2574;-61
2022/07/08 02:58:36;;;;;;;;;;;;;;;22.43;52.23;101839.50;5069291;28;2652;-61
2022/07/08 03:01:02;;;;;;;;;;;;;;;22.44;52.02;101834.47;5074714;28;2880;-61
2022/07/08 03:03:28;;;;;;;;;;;;;;;22.44;52.20;101846.03;5073956;28;2674;-61
2022/07/08 03:05:55;;;;;;;;;;;;;;;22.43;51.98;101844.53;5071703;28;2610;-61
2022/07/08 03:08:22;;;;;;;;;;;;;;;22.42;52.08;101846.66;5066229;28;3095;-61
2022/07/08 03:10:49;;;;;;;;;;;;;;;22.42;52.05;101849.53;5068327;28;2698;-61
2022/07/08 03:13:15;;;;;;;;;;;;;;;22.41;52.25;101853.81;5070195;28;2606;-61
2022/07/08 03:15:42;;;;;;;;;;;;;;;22.42;52.38;101854.56;5068229;28;2965;-61
2022/07/08 03:18:08;;;;;;;;;;;;;;;22.41;52.05;101856.72;5069671;28;2648;-61
2022/07/08 03:20:35;;;;;;;;;;;;;;;22.41;52.18;101870.41;5070789;28;2891;-61
2022/07/08 03:23:01;;;;;;;;;;;;;;;22.40;52.14;101866.00;5075245;28;3070;-61
2022/07/08 03:25:29;;;;;;;;;;;;;;;22.41;52.17;101865.38;5070781;28;2732;-61
2022/07/08 03:27:55;;;;;;;;;;;;;;;22.40;51.99;101875.41;5071808;28;2627;-61
2022/07/08 03:30:22;;;;;;;;;;;;;;;22.40;52.05;101875.41;5072958;28;2847;-61
2022/07/08 03:32:48;;;;;;;;;;;;;;;22.39;52.01;101885.47;5077056;28;2559;-61
2022/07/08 03:35:15;;;;;;;;;;;;;;;22.39;52.06;101871.03;5075919;28;2710;-61
2022/07/08 03:37:42;;;;;;;;;;;;;;;22.39;52.26;101888.34;5075620;28;2613;-61
2022/07/08 03:42:54;;;;;;;;;;;;;;;22.38;52.35;101898.41;5076814;28;2950;-61
2022/07/08 03:45:20;;;;;;;;;;;;;;;22.38;52.04;101898.41;5071548;28;2469;-61
2022/07/08 03:47:46;;;;;;;;;;;;;;;22.38;51.94;101907.06;5074007;28;2717;-61
2022/07/08 03:50:13;;;;;;;;;;;;;;;22.38;52.22;101915.72;5074770;28;2646;-61
2022/07/08 03:52:39;;;;;;;;;;;;;;;22.37;51.98;101912.06;5071662;28;2977;-61
2022/07/08 03:55:06;;;;;;;;;;;;;;;22.37;52.07;101926.50;5074737;28;2702;-61
2022/07/08 03:57:32;;;;;;;;;;;;;;;22.37;52.08;101929.38;5073823;28;2951;-61
2022/07/08 03:59:58;;;;;;;;;;;;;;;22.36;51.97;101927.91;5077464;28;2706;-60
2022/07/08 04:02:25;;;;;;;;;;;;;;;22.37;52.08;101926.50;5074363;28;2607;-61
2022/07/08 04:04:51;;;;;;;;;;;;;;;22.36;52.11;101938.69;5071998;28;3024;-61
2022/07/08 04:07:18;;;;;;;;;;;;;;;22.35;52.10;101928.53;5077968;28;2798;-61
2022/07/08 04:09:44;;;;;;;;;;;;;;;22.35;52.12;101934.28;5074571;28;2640;-61
2022/07/08 04:12:10;;;;;;;;;;;;;;;22.36;52.12;101932.91;5072845;28;2694;-61
2022/07/08 04:14:37;;;;;;;;;;;;;;;22.35;52.16;101932.16;5076354;28;2693;-61
2022/07/08 04:17:03;;;;;;;;;;;;;;;22.34;52.03;101933.56;5068293;28;2606;-61
2022/07/08 04:19:30;;;;;;;;;;;;;;;22.35;52.00;101934.28;5072966;28;3115;-61
2022/07/08 04:21:56;;;;;;;;;;;;;;;22.35;52.06;101940.06;5069524;28;2714;-61
2022/07/08 04:24:22;;;;;;;;;;;;;;;22.34;52.10;101942.22;5074879;28;2627;-61
2022/07/08 04:26:49;;;;;;;;;;;;;;;22.34;52.13;101944.34;5076475;28;2942;-61
2022/07/08 04:29:15;;;;;;;;;;;;;;;22.33;52.14;101951.50;5078574;28;2372;-61
2022/07/08 04:31:41;;;;;;;;;;;;;;;22.32;52.34;101950.75;5080264;28;1991;-60
2022/07/08 04:34:08;;;;;;;;;;;;;;;22.33;52.47;101957.25;5076451;28;2462;-61
2022/07/08 04:36:34;;;;;;;;;;;;;;;22.33;52.19;101957.25;5074199;28;2984;-61
2022/07/08 04:39:01;;;;;;;;;;;;;;;22.31;52.45;101960.03;5072930;28;3208;-60
2022/07/08 04:41:27;;;;;;;;;;;;;;;22.31;52.34;101965.81;5058138;28;3397;-60
2022/07/08 04:43:53;;;;;;;;;;;;;;;22.37;52.29;101971.94;5071806;28;3123;-57
2022/07/08 04:46:20;;;;;;;;;;;;;;;22.40;52.50;101973.53;5073826;28;3125;-59
2022/07/08 04:48:46;;;;;;;;;;;;;;;22.39;52.46;101972.03;5069981;28;2938;-58
2022/07/08 04:51:13;;;;;;;;;;;;;;;22.39;52.42;101977.81;5072986;28;3215;-58
2022/07/08 04:53:39;;;;;;;;;;;;;;;22.30;52.71;101981.63;5073132;28;3044;-59
2022/07/08 04:56:05;;;;;;;;;;;;;;;22.38;52.75;101976.31;5067406;28;3161;-58
2022/07/08 04:58:32;;;;;;;;;;;;;;;22.37;52.63;101981.31;5073505;28;3128;-61
2022/07/08 05:00:58;;;;;;;;;;;;;;;22.37;52.75;101989.25;5076285;28;3029;-59
2022/07/08 05:03:27;;;;;;;;;;;;;;;22.34;52.61;101988.38;5048819;28;3086;-59
2022/07/08 05:06:01;;;;;;;;;;;;;;;22.27;53.25;101988.69;5068666;28;3081;-61
2022/07/08 05:08:27;;;;;;;;;;;;;;;22.33;52.79;101994.78;5072831;28;3018;-62
2022/07/08 05:10:54;;;;;;;;;;;;;;;22.22;52.87;101987.69;5073037;28;3067;-59
2022/07/08 05:13:20;;;;;;;;;;;;;;;22.23;52.81;101994.97;5074550;28;3407;-59
2022/07/08 05:15:47;;;;;;;;;;;;;;;22.26;52.65;102001.59;5075830;28;2420;-59
2022/07/08 05:18:14;;;;;;;;;;;;;;;22.27;52.82;102006.00;5075780;28;2206;-59
2022/07/08 05:20:40;;;;;;;;;;;;;;;22.27;52.60;102003.84;5058626;28;2441;-59
2022/07/08 05:23:08;;;;;;;;;;;;;;;22.28;52.66;102014.00;5077805;28;2669;-59
2022/07/08 05:25:34;;;;;;;;;;;;;;;22.29;52.73;102009.00;5077137;28;1634;-59
2022/07/08 05:28:01;;;;;;;;;;;;;;;22.28;52.59;102013.25;5077426;28;1623;-59
2022/07/08 05:30:27;;;;;;;;;;;;;;;22.28;52.66;102014.00;5077210;28;2343;-59
2022/07/08 05:32:53;;;;;;;;;;;;;;;22.29;52.64;102018.41;5078760;28;2042;-59
2022/07/08 05:35:20;;;;;;;;;;;;;;;22.26;52.70;102022.53;5060101;28;2876;-59
2022/07/08 05:37:46;;;;;;;;;;;;;;;22.28;52.81;102019.03;5076401;28;1699;-59
2022/07/08 05:40:13;;;;;;;;;;;;;;;22.25;52.74;102014.53;5060063;28;2810;-59
2022/07/08 05:42:39;;;;;;;;;;;;;;;22.28;52.81;102016.13;5077390;28;2520;-59
2022/07/08 05:45:06;;;;;;;;;;;;;;;22.29;52.50;102011.88;5074900;28;1731;-59
2022/07/08 05:47:32;;;;;;;;;;;;;;;22.27;52.78;102021.16;5076029;28;2228;-59
2022/07/08 05:49:59;;;;;;;;;;;;;;;22.28;52.67;102024.78;5078643;28;1898;-59
2022/07/08 05:52:25;;;;;;;;;;;;;;;22.27;52.69;102023.31;5076187;28;2361;-59
2022/07/08 05:54:52;;;;;;;;;;;;;;;22.26;52.61;102022.53;5075196;28;2417;-59
2022/07/08 05:57:18;;;;;;;;;;;;;;;22.25;52.54;102029.72;5066824;28;2353;-59
2022/07/08 05:59:44;;;;;;;;;;;;;;;22.26;52.79;102033.34;5067965;28;1897;-60
2022/07/08 06:02:11;;;;;;;;;;;;;;;22.25;52.84;102031.84;5058866;28;2740;-59
2022/07/08 06:04:37;;;;;;;;;;;;;;;22.24;52.78;102031.09;5067822;28;1634;-59
2022/07/08 06:07:03;;;;;;;;;;;;;;;22.25;52.60;102028.97;5066339;28;2334;-60
2022/07/08 06:09:30;;;;;;;;;;;;;;;22.25;52.73;102034.72;5066103;28;1775;-59
2022/07/08 06:11:57;;;;;;;;;;;;;;;22.24;52.59;102036.88;5065903;28;2381;-59
2022/07/08 06:14:23;;;;;;;;;;;;;;;22.24;52.54;102054.19;5064862;28;1827;-59
2022/07/08 06:16:49;;;;;;;;;;;;;;;22.25;52.57;102060.69;5069612;28;2259;-59
2022/07/08 06:19:16;;;;;;;;;;;;;;;22.25;52.73;102066.47;5067151;28;1894;-59
2022/07/08 06:21:42;;;;;;;;;;;;;;;22.24;52.67;102070.72;5068055;28;2413;-59
2022/07/08 06:24:09;;;;;;;;;;;;;;;22.24;52.53;102070.72;5068933;28;1842;-60
2022/07/08 06:26:36;;;;;;;;;;;;;;;22.24;52.69;102065.72;5065819;28;2567;-59
2022/07/08 06:29:02;;;;;;;;;;;;;;;22.24;52.51;102070.72;5067134;28;2270;-59
2022/07/08 06:31:28;;;;;;;;;;;;;;;22.25;52.45;102069.34;5067848;28;1967;-59
2022/07/08 06:33:58;;;;;;;;;;;;;;;22.24;52.41;102068.63;5063565;28;1660;-59
2022/07/08 06:36:25;;;;;;;;;;;;;;;22.24;52.46;102083.03;5063520;28;2333;-59
2022/07/08 06:38:51;;;;;;;;;;;;;;;22.24;52.40;102083.03;5068222;28;1731;-59
2022/07/08 06:41:18;;;;;;;;;;;;;;;22.24;52.46;102082.25;5068506;28;1962;-59
2022/07/08 06:43:44;;;;;;;;;;;;;;;22.24;52.65;102085.16;5066602;28;1865;-59
2022/07/08 06:46:11;;;;;;;;;;;;;;;22.24;52.47;102090.91;5076079;28;2026;-60
2022/07/08 06:48:37;;;;;;;;;;;;;;;22.24;52.38;102102.47;5075946;28;2389;-60
2022/07/08 06:51:04;;;;;;;;;;;;;;;22.23;52.44;102090.19;5075230;28;1894;-60
2022/07/08 06:54:34;;;;;;;;;;;;;;;22.23;52.66;102104.59;5075500;28;2156;-59
2022/07/08 06:56:16;;;;;;;;;;;;;;;22.23;52.29;102100.97;5070982;28;1885;-59
2022/07/08 06:58:43;;;;;;;;;;;;;;;22.23;52.48;102092.31;5066447;28;2418;-59
2022/07/08 07:01:10;;;;;;;;;;;;;;;22.23;52.54;102092.31;5065337;28;1936;-59
2022/07/08 07:03:36;;;;;;;;;;;;;;;22.23;52.62;102092.31;5067975;28;1692;-59
2022/07/08 07:06:03;;;;;;;;;;;;;;;22.23;52.57;102092.31;5078623;28;2357;-59
2022/07/08 07:08:29;;;;;;;;;;;;;;;22.21;52.58;102087.16;5079042;28;2349;-60
2022/07/08 07:10:56;;;;;;;;;;;;;;;22.22;52.54;102087.91;5080463;28;2106;-59
2022/07/08 07:13:23;;;;;;;;;;;;;;;22.22;52.56;102085.81;5081230;28;2220;-59
2022/07/08 07:15:49;;;;;;;;;;;;;;;22.22;52.70;102097.34;5079067;28;2393;-60
2022/07/08 07:18:15;;;;;;;;;;;;;;;22.22;52.35;102096.56;5080642;28;2389;-59
2022/07/08 07:20:42;;;;;;;;;;;;;;;22.22;52.52;102091.56;5079066;28;2385;-59
2022/07/08 07:23:08;;;;;;;;;;;;;;;22.22;52.38;102102.34;5080717;28;2283;-59
2022/07/08 07:25:35;;;;;;;;;;;;;;;22.23;52.49;102103.88;5080180;28;1643;-59
2022/07/08 07:28:01;;;;;;;;;;;;;;;22.23;52.25;102103.88;5080811;28;2235;-59
2022/07/08 07:30:27;;;;;;;;;;;;;;;22.23;52.32;102089.44;5079539;28;2066;-59
2022/07/08 07:32:54;;;;;;;;;;;;;;;22.23;52.30;102109.63;5081149;28;1898;-59
2022/07/08 07:35:23;;;;;;;;;;;;;;;22.23;52.39;102103.88;5078712;28;2118;-59
2022/07/08 07:37:49;;;;;;;;;;;;;;;22.22;52.24;102108.13;5078756;28;2381;-59
2022/07/08 07:40:16;;;;;;;;;;;;;;;22.23;52.24;102109.63;5079523;28;2038;-60
2022/07/08 07:42:42;;;;;;;;;;;;;;;22.23;52.42;102110.38;5079336;28;2318;-59
2022/07/08 07:45:09;;;;;;;;;;;;;;;22.24;52.37;102102.47;5074920;28;2301;-59
2022/07/08 07:47:35;;;;;;;;;;;;;;;22.25;52.21;102101.09;5079269;28;2172;-59
2022/07/08 07:50:01;;;;;;;;;;;;;;;22.25;52.31;102106.88;5075141;28;3119;-59
2022/07/08 07:52:28;;;;;;;;;;;;;;;22.24;52.35;102111.91;5078439;28;2768;-58
2022/07/08 07:54:54;;;;;;;;;;;;;;;22.24;52.28;102114.00;5077768;28;2627;-59
2022/07/08 07:57:21;;;;;;;;;;;;;;;22.23;52.36;102116.16;5078995;28;2790;-60
2022/07/08 07:59:47;;;;;;;;;;;;;;;22.24;52.23;102111.13;5079623;28;1950;-59
2022/07/08 08:02:14;;;;;;;;;;;;;;;22.22;52.62;102108.13;5077409;28;2908;-58
2022/07/08 08:04:41;;;;;;;;;;;;;;;22.22;52.32;102108.13;5074233;28;2633;-58
2022/07/08 08:07:08;;;;;;;;;;;;;;;22.24;52.17;102109.00;5076754;28;2298;-58
2022/07/08 08:09:34;;;;;;;;;;;;;;;22.24;52.33;102111.13;5077396;28;1784;-58
2022/07/08 08:12:00;;;;;;;;;;;;;;;22.22;52.14;102111.78;5079525;28;2349;-59
2022/07/08 08:14:27;;;;;;;;;;;;;;;22.23;52.20;102115.41;5080055;28;2297;-58
2022/07/08 08:16:53;;;;;;;;;;;;;;;22.22;52.23;102102.34;5078440;28;2436;-58
2022/07/08 08:19:20;;;;;;;;;;;;;;;22.21;52.26;102107.38;5077796;28;1839;-58
2022/07/08 08:21:46;;;;;;;;;;;;;;;22.22;52.26;102125.44;5078458;28;2113;-59
2022/07/08 08:24:12;;;;;;;;;;;;;;;22.22;52.41;102125.44;5080480;28;1731;-58
2022/07/08 08:26:39;;;;;;;;;;;;;;;22.21;52.23;102129.69;5076095;28;2478;-59
2022/07/08 08:29:05;;;;;;;;;;;;;;;22.22;52.34;102125.44;5076813;28;2375;-59
2022/07/08 08:31:32;;;;;;;;;;;;;;;22.22;52.26;102131.19;5076345;28;2404;-58
2022/07/08 08:33:58;;;;;;;;;;;;;;;22.22;52.33;102125.44;5076879;28;2380;-59
2022/07/08 08:36:26;;;;;;;;;;;;;;;22.21;52.42;102135.44;5078445;28;1722;-59
2022/07/08 08:38:52;;;;;;;;;;;;;;;22.22;52.30;102122.53;5077036;28;1842;-59
2022/07/08 08:41:19;;;;;;;;;;;;;;;22.21;52.46;102121.03;5079636;28;1741;-59
2022/07/08 08:43:45;;;;;;;;;;;;;;;22.21;52.25;102123.91;5062705;28;1524;-58
2022/07/08 08:46:12;;;;;;;;;;;;;;;22.21;52.49;102121.03;5078852;28;1583;-59
2022/07/08 08:48:38;;;;;;;;;;;;;;;22.19;52.41;102121.66;5066114;28;1595;-59
2022/07/08 08:51:08;;;;;;;;;;;;;;;22.20;52.49;102131.81;5079320;28;1624;-58
2022/07/08 08:53:40;;;;;;;;;;;;;;;22.20;52.63;102136.84;5078372;28;1945;-58
2022/07/08 08:56:10;;;;;;;;;;;;;;;22.18;52.44;102138.22;5077160;28;2189;-58
2022/07/08 08:58:39;;;;;;;;;;;;;;;22.20;52.15;102142.63;5074927;28;2838;-58
2022/07/08 09:01:07;;;;;;;;;;;;;;;22.20;52.15;102137.59;5079326;28;2275;-58
2022/07/08 09:03:34;;;;;;;;;;;;;;;22.20;52.29;102154.16;5077398;28;2365;-59
2022/07/08 09:06:00;;;;;;;;;;;;;;;22.18;52.45;102149.75;5077546;28;1584;-58
2022/07/08 09:08:27;;;;;;;;;;;;;;;22.17;52.35;102165.56;5077175;28;1842;-58
2022/07/08 09:10:53;;;;;;;;;;;;;;;22.18;52.24;102166.31;5077923;28;1612;-59
2022/07/08 09:13:23;;;;;;;;;;;;;;;22.18;52.17;102149.75;5076551;28;1979;-58
2022/07/08 09:15:57;;;;;;;;;;;;;;;22.17;52.42;102156.16;5057896;28;2483;-58
2022/07/08 09:18:28;;;;;;;;;;;;;;;22.16;52.30;102152.50;5078174;28;1589;-58
2022/07/08 09:20:55;;;;;;;;;;;;;;;22.17;52.47;102154.03;5077092;28;1659;-59
2022/07/08 09:23:22;;;;;;;;;;;;;;;22.16;52.31;102158.28;5075701;28;1776;-59
2022/07/08 09:25:49;;;;;;;;;;;;;;;22.16;52.48;102151.78;5076114;28;1608;-59
2022/07/08 09:28:16;;;;;;;;;;;;;;;22.16;52.36;102146.75;5073949;28;1807;-59
2022/07/08 09:30:42;;;;;;;;;;;;;;;22.17;52.27;102150.38;5077648;28;1834;-58
2022/07/08 09:33:08;;;;;;;;;;;;;;;22.16;52.29;102160.41;5077407;28;1996;-58
2022/07/08 09:35:36;;;;;;;;;;;;;;;22.16;52.56;102161.16;5059465;28;1589;-58
2022/07/08 09:38:03;;;;;;;;;;;;;;;22.16;52.31;102154.66;5076854;28;1667;-58
2022/07/08 09:40:30;;;;;;;;;;;;;;;22.17;52.26;102159.81;5075115;28;1641;-58
2022/07/08 09:42:56;;;;;;;;;;;;;;;22.17;52.44;102159.81;5078788;28;1593;-58
2022/07/08 09:45:29;;;;;;;;;;;;;;;22.16;52.58;102160.41;5074006;28;1540;-59
2022/07/08 09:48:02;;;;;;;;;;;;;;;22.16;52.47;102158.28;5078465;28;1708;-58
2022/07/08 09:50:32;;;;;;;;;;;;;;;22.18;52.29;102160.53;5075809;28;2295;-58
2022/07/08 09:53:19;;;;;;;;;;;;;;;22.15;52.28;102156.03;5077408;28;1991;-58
2022/07/08 09:55:47;;;;;;;;;;;;;;;22.16;52.26;102158.28;5075777;28;2198;-58
2022/07/08 09:58:14;;;;;;;;;;;;;;;22.15;52.29;102156.78;5068544;28;1794;-59
2022/07/08 10:00:40;;;;;;;;;;;;;;;22.16;52.18;102158.28;5065057;28;1568;-58
2022/07/08 10:03:07;;;;;;;;;;;;;;;22.18;52.39;102154.78;5068829;28;1711;-58
2022/07/08 10:05:33;;;;;;;;;;;;;;;22.16;52.25;102152.50;5068145;28;2645;-58
2022/07/08 10:08:00;;;;;;;;;;;;;;;22.18;52.26;102166.31;5070056;28;2618;-59
2022/07/08 10:10:26;;;;;;;;;;;;;;;22.19;52.40;102162.03;5059614;28;1555;-58
2022/07/08 10:12:56;;;;;;;;;;;;;;;22.20;52.20;102162.81;5076969;28;1967;-58
2022/07/08 10:15:26;;;;;;;;;;;;;;;22.21;52.16;102155.66;5076189;28;2383;-58
2022/07/08 10:17:52;;;;;;;;;;;;;;;22.24;52.06;102157.28;5076230;28;2827;-59
2022/07/08 10:20:19;;;;;;;;;;;;;;;22.24;52.23;102163.06;5075290;28;2809;-58
2022/07/08 10:22:46;;;;;;;;;;;;;;;22.26;52.21;102151.63;5074912;28;2374;-59
2022/07/08 10:25:12;;;;;;;;;;;;;;;22.24;52.06;102160.94;5058818;28;2219;-60
2022/07/08 10:27:39;;;;;;;;;;;;;;;22.26;52.17;102160.28;5059497;28;2168;-59
2022/07/08 10:30:13;;;;;;;;;;;;;;;22.27;51.87;102144.50;5075783;28;2346;-59
2022/07/08 10:32:39;;;;;;;;;;;;;;;22.27;52.19;102150.28;5076897;28;1922;-59
2022/07/08 10:35:09;;;;;;;;;;;;;;;22.27;51.79;102139.47;5076828;28;1664;-60
2022/07/08 10:37:48;;;;;;;;;;;;;;;22.29;52.06;102135.97;5076042;28;2356;-59
2022/07/08 10:40:34;;;;;;;;;;;;;;;22.29;52.11;102133.09;5076933;28;1535;-60
2022/07/08 10:43:18;;;;;;;;;;;;;;;22.30;51.89;102120.13;5074989;28;2343;-59
2022/07/08 10:46:00;;;;;;;;;;;;;;;22.30;52.08;102128.81;5075970;28;2352;-59
2022/07/08 10:48:47;;;;;;;;;;;;;;;22.30;51.85;102117.25;5075163;28;2562;-60
2022/07/08 10:51:20;;;;;;;;;;;;;;;22.30;51.81;102109.34;5076400;28;2321;-59
2022/07/08 10:54:05;;;;;;;;;;;;;;;22.30;52.02;102109.34;5075793;28;2326;-60
2022/07/08 10:56:44;;;;;;;;;;;;;;;22.31;51.83;102112.97;5071123;28;2222;-60
2022/07/08 10:59:14;;;;;;;;;;;;;;;22.30;51.81;102115.13;5066764;28;1575;-60
2022/07/08 11:01:40;;;;;;;;;;;;;;;22.32;52.05;102123.16;5067223;28;2381;-60
2022/07/08 11:04:27;;;;;;;;;;;;;;;22.32;52.03;102117.38;5069066;28;1963;-60
2022/07/08 11:06:54;;;;;;;;;;;;;;;22.34;51.98;102123.28;5071446;28;2248;-59
2022/07/08 11:09:22;;;;;;;;;;;;;;;22.33;51.88;102124.63;5075341;28;2420;-59
2022/07/08 11:11:48;;;;;;;;;;;;;;;22.34;51.76;102132.69;5058454;28;2357;-59
2022/07/08 11:14:14;;;;;;;;;;;;;;;22.35;51.72;102111.06;5057119;28;2951;-59
2022/07/08 11:16:41;;;;;;;;;;;;;;;22.36;51.82;102108.97;5074289;28;2467;-59
2022/07/08 11:19:07;;;;;;;;;;;;;;;22.37;51.61;102110.44;5076090;28;2252;-60
2022/07/08 11:21:33;;;;;;;;;;;;;;;22.37;51.78;102119.84;5074285;28;2389;-60
2022/07/08 11:24:00;;;;;;;;;;;;;;;22.37;51.77;102122.00;5073527;28;1673;-59
2022/07/08 11:26:26;;;;;;;;;;;;;;;22.37;51.93;102119.09;5057642;28;2148;-60
2022/07/08 11:28:53;;;;;;;;;;;;;;;22.37;51.96;102119.84;5073845;28;1743;-60
2022/07/08 11:31:26;;;;;;;;;;;;;;;22.38;51.71;102114.84;5075298;28;2352;-60
2022/07/08 11:33:52;;;;;;;;;;;;;;;22.39;51.71;102125.00;5075017;28;2338;-60
2022/07/08 11:36:19;;;;;;;;;;;;;;;22.38;51.89;102126.41;5072762;28;2365;-60
2022/07/08 11:38:45;;;;;;;;;;;;;;;22.39;51.88;102122.13;5075622;28;1552;-59
2022/07/08 11:41:12;;;;;;;;;;;;;;;22.39;51.67;102116.34;5076581;28;1910;-60
2022/07/08 11:43:38;;;;;;;;;;;;;;;22.40;51.85;102117.09;5075685;28;2432;-59
2022/07/08 11:46:15;;;;;;;;;;;;;;;22.40;51.68;102117.84;5060714;28;2884;-59
2022/07/08 11:48:41;;;;;;;;;;;;;;;22.39;51.74;102110.56;5075483;28;1867;-59
2022/07/08 11:51:14;;;;;;;;;;;;;;;22.40;51.87;102123.59;5076661;28;2426;-60
2022/07/08 11:53:40;;;;;;;;;;;;;;;22.38;51.79;102114.84;5077572;28;2855;-59
2022/07/08 11:56:07;;;;;;;;;;;;;;;22.39;51.95;102110.56;5075045;28;2470;-60
2022/07/08 11:58:39;;;;;;;;;;;;;;;22.40;51.99;102117.84;5079980;28;2353;-60
2022/07/08 12:01:05;;;;;;;;;;;;;;;22.40;51.72;102114.94;5079006;28;2306;-60
2022/07/08 12:03:34;;;;;;;;;;;;;;;22.40;51.93;102123.59;5077919;28;2226;-60
2022/07/08 12:06:01;;;;;;;;;;;;;;;22.41;51.89;102124.38;5066771;28;2408;-60
2022/07/08 12:08:27;;;;;;;;;;;;;;;22.39;51.80;102127.88;5080646;28;1790;-59
2022/07/08 12:11:09;;;;;;;;;;;;;;;22.39;51.73;102127.88;5076775;28;2116;-60
2022/07/08 12:13:39;;;;;;;;;;;;;;;22.40;51.76;102135.16;5078318;28;2512;-60
2022/07/08 12:16:06;;;;;;;;;;;;;;;22.39;51.77;102127.88;5079982;28;1659;-60
2022/07/08 12:18:34;;;;;;;;;;;;;;;22.41;51.87;102130.16;5061417;28;2235;-60
2022/07/08 12:21:15;;;;;;;;;;;;;;;22.37;51.55;102122.75;5077811;28;2309;-60
2022/07/08 12:23:45;;;;;;;;;;;;;;;22.36;51.81;102123.38;5076579;28;2412;-59
2022/07/08 12:26:12;;;;;;;;;;;;;;;22.36;51.01;102111.84;5080214;28;1611;-60
2022/07/08 12:28:38;;;;;;;;;;;;;;;22.37;50.85;102113.34;5077336;28;2668;-60
2022/07/08 12:31:05;;;;;;;;;;;;;;;22.37;50.97;102107.56;5077020;28;2835;-61
2022/07/08 12:33:32;;;;;;;;;;;;;;;22.33;50.97;102101.56;5078548;28;2931;-60
2022/07/08 12:36:00;;;;;;;;;;;;;;;22.36;50.43;102111.84;5077426;28;2643;-69
2022/07/08 12:38:27;;;;;;;;;;;;;;;22.37;50.39;102098.91;5076674;28;1724;-60
2022/07/08 12:40:53;;;;;;;;;;;;;;;22.37;50.41;102110.44;5076619;28;2730;-60
2022/07/08 12:43:20;;;;;;;;;;;;;;;22.35;50.13;102104.56;5078606;28;2317;-60
2022/07/08 12:45:46;;;;;;;;;;;;;;;22.35;50.28;102110.31;5077576;28;1842;-60
2022/07/08 12:48:13;;;;;;;;;;;;;;;22.36;50.00;102111.84;5076695;28;2723;-60
2022/07/08 12:50:40;;;;;;;;;;;;;;;22.35;50.15;102101.69;5071975;28;2770;-60
2022/07/08 12:53:07;;;;;;;;;;;;;;;22.35;50.07;102116.09;5074107;28;2903;-60
2022/07/08 12:55:33;;;;;;;;;;;;;;;22.34;50.02;102109.59;5075166;28;2983;-60